createdAt,value
2018-06-22T03:37:38.341Z,13.4
2018-06-22T03:38:28.193Z,13.5
2018-06-22T03:39:18.488Z,13.6
2018-06-22T03:40:08.009Z,13.6
2018-06-22T03:40:58.052Z,13.6
2018-06-22T03:41:48.690Z,13.7
2018-06-22T03:42:38.193Z,13.8
2018-06-22T03:43:28.235Z,13.8
2018-06-22T03:44:18.575Z,13.8
2018-06-22T03:45:08.907Z,13.9
2018-06-22T03:45:58.714Z,13.9
2018-06-22T03:46:49.098Z,13.9
2018-06-22T03:47:39.105Z,14
2018-06-22T03:48:28.923Z,14.1
2018-06-22T03:49:18.967Z,14.2
2018-06-22T03:50:08.745Z,14.3
2018-06-22T03:50:59.088Z,14.3
2018-06-22T03:51:48.870Z,14.4
2018-06-22T03:52:39.502Z,14.4
2018-06-22T03:53:29.270Z,14.5
2018-06-22T03:54:19.616Z,14.6
2018-06-22T03:55:09.674Z,14.7
2018-06-22T03:55:59.465Z,14.8
2018-06-22T03:56:49.867Z,14.9
2018-06-22T03:57:39.307Z,15
2018-06-22T03:58:29.696Z,15.1
2018-06-22T03:59:19.983Z,15.2
2018-06-22T04:00:10.077Z,15.3
2018-06-22T04:00:59.843Z,15.4
2018-06-22T04:01:49.964Z,15.6
2018-06-22T04:02:40.273Z,15.8
2018-06-22T04:03:29.501Z,15.9
2018-06-22T04:04:20.116Z,16
2018-06-22T04:05:09.595Z,16.2
2018-06-22T04:06:00.241Z,16.3
2018-06-22T04:06:50.304Z,16.5
2018-06-22T04:07:40.660Z,16.6
2018-06-22T04:08:30.713Z,16.8
2018-06-22T04:09:20.549Z,16.9
2018-06-22T04:10:10.258Z,17.1
2018-06-22T04:11:00.916Z,17.2
2018-06-22T04:11:50.686Z,17.3
2018-06-22T04:12:40.800Z,17.4
2018-06-22T04:13:31.092Z,17.6
2018-06-22T04:14:20.958Z,17.8
2018-06-22T04:15:11.207Z,17.9
2018-06-22T04:16:01.300Z,18
2018-06-22T04:16:51.065Z,18.1
2018-06-22T04:17:41.129Z,18.3
2018-06-22T04:18:30.895Z,18.4
2018-06-22T04:19:21.252Z,18.6
2018-06-22T04:21:01.095Z,18.8
2018-06-22T04:21:51.709Z,18.9
2018-06-22T04:22:41.242Z,19.1
2018-06-22T04:23:31.284Z,19.2
2018-06-22T04:24:21.851Z,19.3
2018-06-22T04:25:12.017Z,19.4
2018-06-22T04:26:02.072Z,19.5
2018-06-22T04:26:51.822Z,19.6
2018-06-22T04:27:42.157Z,19.7
2018-06-22T04:28:32.237Z,19.8
2018-06-22T04:29:22.297Z,19.9
2018-06-22T04:30:11.806Z,20.1
2018-06-22T04:31:02.184Z,20.3
2018-06-22T04:31:52.504Z,20.4
2018-06-22T04:32:42.274Z,20.6
2018-06-22T04:33:32.637Z,20.8
2018-06-22T04:34:22.446Z,21
2018-06-22T04:35:11.997Z,21.3
2018-06-22T04:36:02.844Z,21.4
2018-06-22T04:36:52.927Z,21.6
2018-06-22T04:37:42.953Z,21.8
2018-06-22T04:38:33.204Z,21.9
2018-06-22T04:39:23.065Z,22
2018-06-22T04:40:12.841Z,22.2
2018-06-22T04:41:02.649Z,22.3
2018-06-22T04:41:53.272Z,22.5
2018-06-22T04:42:42.483Z,22.6
2018-06-22T04:43:33.382Z,22.7
2018-06-22T04:44:23.473Z,22.9
2018-06-22T04:45:13.262Z,23
2018-06-22T04:46:03.624Z,23.3
2018-06-22T04:46:53.376Z,23.4
2018-06-22T04:47:43.963Z,23.6
2018-06-22T04:48:32.946Z,23.8
2018-06-22T04:49:23.828Z,23.9
2018-06-22T04:50:13.950Z,24.1
2018-06-22T04:51:03.976Z,24.3
2018-06-22T04:51:53.768Z,24.5
2018-06-22T04:52:43.148Z,24.8
2018-06-22T04:53:33.940Z,24.9
2018-06-22T04:54:24.263Z,25.2
2018-06-22T04:55:14.293Z,25.3
2018-06-22T04:56:04.078Z,25.5
2018-06-22T04:56:54.125Z,25.6
2018-06-22T04:57:44.205Z,25.9
2018-06-22T04:58:34.528Z,26
2018-06-22T04:59:24.602Z,26.1
2018-06-22T05:00:14.683Z,26.3
2018-06-22T05:01:04.737Z,26.4
2018-06-22T05:01:54.795Z,26.5
2018-06-22T05:02:44.317Z,26.7
2018-06-22T05:03:35.155Z,26.9
2018-06-22T05:04:24.720Z,27.1
2018-06-22T05:05:15.109Z,27.4
2018-06-22T05:06:05.165Z,27.6
2018-06-22T05:06:54.661Z,27.8
2018-06-22T05:07:45.270Z,27.9
2018-06-22T05:08:35.341Z,28.1
2018-06-22T05:09:25.806Z,28.3
2018-06-22T05:10:15.207Z,28.6
2018-06-22T05:11:04.962Z,28.9
2018-06-22T05:11:55.580Z,29.2
2018-06-22T05:12:45.666Z,29.5
2018-06-22T05:13:35.715Z,29.8
2018-06-22T05:14:25.787Z,30.1
2018-06-22T05:15:15.834Z,30.4
2018-06-22T05:16:05.632Z,30.6
2018-06-22T05:16:55.717Z,30.9
2018-06-22T05:17:45.776Z,31.2
2018-06-22T05:18:35.820Z,31.4
2018-06-22T05:19:26.167Z,31.7
2018-06-22T05:20:16.232Z,32
2018-06-22T05:21:06.010Z,32.3
2018-06-22T05:21:56.364Z,32.5
2018-06-22T05:22:46.967Z,32.8
2018-06-22T05:23:36.487Z,33
2018-06-22T05:24:26.552Z,33.3
2018-06-22T05:25:16.667Z,33.5
2018-06-22T05:26:06.679Z,33.8
2018-06-22T05:26:56.173Z,34.1
2018-06-22T05:27:46.849Z,34.4
2018-06-22T05:28:36.584Z,34.7
2018-06-22T05:29:26.639Z,34.9
2018-06-22T05:30:17.195Z,35.3
2018-06-22T05:31:06.780Z,35.6
2018-06-22T05:31:57.150Z,35.9
2018-06-22T05:32:47.192Z,36.2
2018-06-22T05:33:36.979Z,36.4
2018-06-22T05:34:27.017Z,36.7
2018-06-22T05:35:17.387Z,36.9
2018-06-22T05:36:06.986Z,37.2
2018-06-22T05:36:57.555Z,37.6
2018-06-22T05:37:46.999Z,37.8
2018-06-22T05:38:37.646Z,38.1
2018-06-22T05:39:27.194Z,38.4
2018-06-22T05:40:17.765Z,38.6
2018-06-22T05:41:07.847Z,38.9
2018-06-22T05:41:57.607Z,39.2
2018-06-22T05:42:47.953Z,39.6
2018-06-22T05:43:37.731Z,39.9
2018-06-22T05:44:27.827Z,40.2
2018-06-22T05:45:17.852Z,40.4
2018-06-22T05:46:07.650Z,40.7
2018-06-22T05:46:58.264Z,41
2018-06-22T05:47:48.074Z,41.3
2018-06-22T05:48:38.126Z,41.6
2018-06-22T05:49:28.206Z,41.9
2018-06-22T05:50:18.551Z,42.1
2018-06-22T05:51:08.037Z,42.3
2018-06-22T05:51:58.699Z,42.4
2018-06-22T05:52:48.188Z,42.6
2018-06-22T05:53:38.831Z,42.8
2018-06-22T05:54:28.593Z,43
2018-06-22T05:55:18.626Z,43.2
2018-06-22T05:56:09.017Z,43.5
2018-06-22T05:56:59.036Z,43.9
2018-06-22T05:57:49.110Z,44.1
2018-06-22T05:58:39.181Z,44.5
2018-06-22T05:59:28.671Z,44.8
2018-06-22T06:00:19.019Z,45.1
2018-06-22T06:01:09.371Z,45.5
2018-06-22T06:01:59.186Z,45.9
2018-06-22T06:02:49.490Z,46.3
2018-06-22T06:03:40.073Z,46.6
2018-06-22T06:04:28.777Z,47.1
2018-06-22T06:05:19.686Z,47.4
2018-06-22T06:06:09.450Z,47.8
2018-06-22T06:06:59.825Z,48.3
2018-06-22T06:07:49.888Z,48.7
2018-06-22T06:08:39.684Z,49.1
2018-06-22T06:09:29.993Z,49.6
2018-06-22T06:10:19.785Z,50
2018-06-22T06:11:10.386Z,50.4
2018-06-22T06:12:00.184Z,50.8
2018-06-22T06:12:50.245Z,51.1
2018-06-22T06:13:40.050Z,51.5
2018-06-22T06:15:20.459Z,52.3
2018-06-22T06:16:10.513Z,52.7
2018-06-22T06:17:00.662Z,53.1
2018-06-22T06:17:50.624Z,53.6
2018-06-22T06:18:40.929Z,54.9
2018-06-22T06:19:30.516Z,54.6
2018-06-22T06:21:10.898Z,48.4
2018-06-22T06:22:00.394Z,43.5
2018-06-22T06:22:51.060Z,41.1
2018-06-22T06:23:41.119Z,39.9
2018-06-22T06:24:30.896Z,39.4
2018-06-22T06:25:21.242Z,39.3
2018-06-22T06:26:11.008Z,39.5
2018-06-22T06:27:01.083Z,40.1
2018-06-22T06:27:51.448Z,40.9
2018-06-22T06:28:40.942Z,41.9
2018-06-22T06:29:31.541Z,42.9
2018-06-22T06:30:21.637Z,43.9
2018-06-22T06:31:11.707Z,45
2018-06-22T06:32:01.517Z,46
2018-06-22T06:32:51.829Z,47
2018-06-22T06:33:41.883Z,47.9
2018-06-22T06:34:31.992Z,48.8
2018-06-22T06:35:22.018Z,49.6
2018-06-22T06:36:12.066Z,50.4
2018-06-22T06:37:01.837Z,51.2
2018-06-22T06:37:51.925Z,52
2018-06-22T06:38:42.247Z,52.8
2018-06-22T06:39:32.377Z,53.9
2018-06-22T06:40:22.460Z,55.6
2018-06-22T06:41:12.448Z,54.3
2018-06-22T06:42:52.299Z,50.3
2018-06-22T06:43:42.068Z,47.9
2018-06-22T06:44:32.732Z,46.1
2018-06-22T06:45:22.775Z,45.5
2018-06-22T06:46:12.855Z,45.6
2018-06-22T06:47:02.927Z,46.3
2018-06-22T06:47:52.952Z,47.4
2018-06-22T06:48:42.467Z,48.6
2018-06-22T06:49:33.480Z,49.6
2018-06-22T06:50:22.871Z,50.8
2018-06-22T06:51:13.231Z,51.8
2018-06-22T06:52:03.295Z,53.3
2018-06-22T06:52:53.343Z,55.5
2018-06-22T06:53:43.136Z,55.3
2018-06-22T06:54:33.207Z,54.8
2018-06-22T06:55:23.544Z,53.6
2018-06-22T06:56:13.644Z,51.4
2018-06-22T06:57:03.435Z,49.5
2018-06-22T06:57:53.231Z,48.9
2018-06-22T06:58:43.808Z,49.8
2018-06-22T06:59:33.933Z,50.9
2018-06-22T07:00:23.946Z,51.9
2018-06-22T07:01:13.990Z,52.1
2018-06-22T07:02:04.066Z,52
2018-06-22T07:02:53.550Z,51.6
2018-06-22T07:03:43.640Z,51.3
2018-06-22T07:04:33.976Z,51.3
2018-06-22T07:05:24.338Z,51.5
2018-06-22T07:07:04.485Z,52.3
2018-06-22T07:07:54.588Z,52.5
2018-06-22T07:08:44.296Z,52.6
2018-06-22T07:09:34.645Z,52.5
2018-06-22T07:10:24.740Z,52.5
2018-06-22T07:11:14.804Z,52.7
2018-06-22T07:12:04.855Z,52.9
2018-06-22T07:12:54.917Z,53.1
2018-06-22T07:13:44.689Z,53.3
2018-06-22T07:14:35.051Z,53.6
2018-06-22T07:15:25.112Z,53.8
2018-06-22T07:16:15.169Z,54
2018-06-22T07:17:05.031Z,54
2018-06-22T07:17:55.314Z,54.1
2018-06-22T07:18:45.372Z,54.2
2018-06-22T07:19:35.163Z,54.4
2018-06-22T07:20:25.503Z,54.6
2018-06-22T07:21:15.566Z,54.8
2018-06-22T07:22:05.639Z,55
2018-06-22T07:22:55.396Z,55.1
2018-06-22T07:23:45.799Z,55.2
2018-06-22T07:24:35.551Z,55.4
2018-06-22T07:25:25.330Z,55.4
2018-06-22T07:26:15.646Z,55.6
2018-06-22T07:27:05.537Z,55.6
2018-06-22T07:27:56.088Z,55.8
2018-06-22T07:28:46.131Z,55.8
2018-06-22T07:29:35.928Z,56
2018-06-22T07:30:26.016Z,56.1
2018-06-22T07:31:16.358Z,56.3
2018-06-22T07:32:06.448Z,56.3
2018-06-22T07:32:55.883Z,56.4
2018-06-22T07:33:46.524Z,56.5
2018-06-22T07:34:36.339Z,56.7
2018-06-22T07:35:26.708Z,56.9
2018-06-22T07:36:16.462Z,57
2018-06-22T07:37:06.817Z,57.1
2018-06-22T07:37:56.276Z,57.2
2018-06-22T07:38:46.944Z,57.4
2018-06-22T07:39:36.425Z,57.6
2018-06-22T07:40:27.059Z,57.7
2018-06-22T07:42:07.189Z,57.8
2018-06-22T07:42:57.304Z,57.9
2018-06-22T07:43:47.028Z,58.2
2018-06-22T07:44:37.078Z,58.4
2018-06-22T07:46:17.508Z,58.8
2018-06-22T07:47:07.591Z,58.9
2018-06-22T07:47:57.630Z,59
2018-06-22T07:48:47.684Z,59.1
2018-06-22T07:49:37.495Z,59.4
2018-06-22T07:50:27.543Z,59.4
2018-06-22T07:51:17.326Z,59.4
2018-06-22T07:52:07.947Z,59.4
2018-06-22T07:52:57.741Z,59.6
2018-06-22T07:53:47.802Z,59.8
2018-06-22T07:54:37.863Z,60.1
2018-06-22T07:55:27.925Z,60.3
2018-06-22T07:56:18.281Z,60.3
2018-06-22T07:57:08.382Z,60.2
2018-06-22T07:57:58.389Z,60.3
2018-06-22T07:58:48.471Z,60.4
2018-06-22T07:59:38.565Z,60.6
2018-06-22T08:00:28.649Z,60.6
2018-06-22T08:01:18.659Z,60.7
2018-06-22T08:02:08.724Z,60.8
2018-06-22T08:02:58.789Z,60.9
2018-06-22T08:03:48.572Z,61.1
2018-06-22T08:04:38.930Z,61.1
2018-06-22T08:05:28.981Z,61.3
2018-06-22T08:06:19.237Z,61.4
2018-06-22T08:07:09.118Z,61.5
2018-06-22T08:07:59.166Z,61.6
2018-06-22T08:08:49.254Z,61.6
2018-06-22T08:09:39.131Z,61.8
2018-06-22T08:10:29.380Z,61.8
2018-06-22T08:11:19.161Z,61.9
2018-06-22T08:12:09.252Z,62.1
2018-06-22T08:12:59.585Z,62.1
2018-06-22T08:13:49.375Z,62.3
2018-06-22T08:14:39.698Z,62.3
2018-06-22T08:15:29.498Z,62.4
2018-06-22T08:16:19.840Z,62.5
2018-06-22T08:17:09.889Z,62.6
2018-06-22T08:17:59.943Z,62.6
2018-06-22T08:18:50.082Z,62.6
2018-06-22T08:19:40.073Z,62.8
2018-06-22T08:20:29.879Z,62.9
2018-06-22T08:21:20.270Z,63.1
2018-06-22T08:22:10.294Z,63.3
2018-06-22T08:23:00.094Z,63.3
2018-06-22T08:23:50.421Z,63.4
2018-06-22T08:24:39.994Z,63.7
2018-06-22T08:25:30.551Z,63.9
2018-06-22T08:26:20.341Z,64
2018-06-22T08:27:10.675Z,64.1
2018-06-22T08:28:00.756Z,64.3
2018-06-22T08:28:50.515Z,64.4
2018-06-22T08:29:40.576Z,64.4
2018-06-22T08:30:30.919Z,64.5
2018-06-22T08:31:20.995Z,64.6
2018-06-22T08:32:10.800Z,64.8
2018-06-22T08:33:00.850Z,64.9
2018-06-22T08:33:50.719Z,64.9
2018-06-22T08:34:40.994Z,65
2018-06-22T08:35:31.047Z,65.2
2018-06-22T08:36:21.383Z,65.3
2018-06-22T08:37:11.167Z,65.3
2018-06-22T08:38:00.766Z,65.4
2018-06-22T08:38:51.319Z,65.6
2018-06-22T08:39:41.390Z,65.7
2018-06-22T08:40:31.732Z,65.8
2018-06-22T08:41:21.487Z,65.9
2018-06-22T08:42:11.724Z,66
2018-06-22T08:43:01.639Z,66.2
2018-06-22T08:43:51.984Z,66.3
2018-06-22T08:44:42.019Z,66.4
2018-06-22T08:45:32.109Z,66.4
2018-06-22T08:46:21.622Z,66.6
2018-06-22T08:47:12.237Z,66.7
2018-06-22T08:48:02.317Z,66.6
2018-06-22T08:48:52.395Z,66.5
2018-06-22T08:49:42.216Z,66.5
2018-06-22T08:50:32.199Z,66.4
2018-06-22T08:51:22.020Z,66.3
2018-06-22T08:52:12.333Z,66.3
2018-06-22T08:53:02.699Z,66.5
2018-06-22T08:53:52.762Z,66.7
2018-06-22T08:54:42.520Z,66.9
2018-06-22T08:55:32.592Z,66.8
2018-06-22T08:56:22.959Z,66.6
2018-06-22T08:57:12.744Z,66.7
2018-06-22T08:58:02.817Z,66.9
2018-06-22T08:58:53.127Z,67.2
2018-06-22T08:59:43.229Z,67.5
2018-06-22T09:00:32.989Z,67.7
2018-06-22T09:01:24.112Z,67.8
2018-06-22T09:02:13.421Z,67.8
2018-06-22T09:03:03.286Z,67.9
2018-06-22T09:03:53.534Z,67.9
2018-06-22T09:04:43.351Z,67.9
2018-06-22T09:05:33.675Z,68.1
2018-06-22T09:06:23.148Z,68.1
2018-06-22T09:07:13.519Z,68.1
2018-06-22T09:08:03.848Z,68.1
2018-06-22T09:08:53.917Z,68.1
2018-06-22T09:09:43.714Z,68.3
2018-06-22T09:10:34.041Z,68.3
2018-06-22T09:11:23.544Z,68.4
2018-06-22T09:12:14.178Z,68.5
2018-06-22T09:13:04.234Z,68.7
2018-06-22T09:13:54.320Z,68.9
2018-06-22T09:14:44.105Z,69
2018-06-22T09:15:34.447Z,68.9
2018-06-22T09:16:23.963Z,68.9
2018-06-22T09:17:14.570Z,69
2018-06-22T09:18:04.080Z,69.1
2018-06-22T09:18:54.710Z,69.1
2018-06-22T09:19:44.482Z,69.1
2018-06-22T09:20:34.859Z,69.2
2018-06-22T09:21:24.333Z,69.3
2018-06-22T09:22:14.688Z,69.3
2018-06-22T09:23:04.492Z,69.2
2018-06-22T09:23:55.083Z,69.3
2018-06-22T09:24:44.885Z,69.3
2018-06-22T09:25:35.221Z,69.4
2018-06-22T09:26:25.001Z,69.5
2018-06-22T09:27:15.070Z,69.7
2018-06-22T09:28:05.410Z,69.8
2018-06-22T09:28:55.510Z,69.8
2018-06-22T09:29:45.596Z,69.9
2018-06-22T09:30:35.361Z,70
2018-06-22T09:31:25.728Z,70.1
2018-06-22T09:32:15.207Z,70.2
2018-06-22T09:33:05.851Z,70.3
2018-06-22T09:33:55.930Z,70.3
2018-06-22T09:34:45.651Z,70.4
2018-06-22T09:35:36.049Z,70.5
2018-06-22T09:36:26.105Z,70.6
2018-06-22T09:37:16.157Z,70.6
2018-06-22T09:38:05.749Z,70.8
2018-06-22T09:38:56.291Z,70.8
2018-06-22T09:39:46.347Z,70.9
2018-06-22T09:40:36.425Z,71
2018-06-22T09:41:26.487Z,71
2018-06-22T09:42:16.532Z,70.9
2018-06-22T09:43:06.603Z,70.9
2018-06-22T09:43:56.398Z,70.8
2018-06-22T09:44:46.705Z,70.8
2018-06-22T09:45:36.539Z,70.9
2018-06-22T09:46:25.813Z,71.1
2018-06-22T09:47:16.640Z,71.3
2018-06-22T09:48:06.142Z,71.4
2018-06-22T09:48:56.513Z,71.5
2018-06-22T09:49:46.560Z,71.5
2018-06-22T09:50:36.631Z,71.4
2018-06-22T09:51:26.980Z,71.3
2018-06-22T09:52:17.312Z,71.4
2018-06-22T09:53:07.398Z,71.3
2018-06-22T09:53:57.175Z,71.4
2018-06-22T09:54:47.488Z,71.6
2018-06-22T09:55:37.279Z,71.8
2018-06-22T09:56:27.633Z,71.9
2018-06-22T09:57:17.422Z,72
2018-06-22T09:58:07.776Z,72.2
2018-06-22T09:58:57.565Z,72.4
2018-06-22T09:59:47.925Z,72.5
2018-06-22T10:00:37.706Z,72.6
2018-06-22T10:01:27.762Z,72.6
2018-06-22T10:02:18.537Z,72.7
2018-06-22T10:03:07.871Z,72.7
2018-06-22T10:03:57.974Z,72.6
2018-06-22T10:04:48.644Z,72.4
2018-06-22T10:05:37.510Z,72.4
2018-06-22T10:06:28.150Z,72.4
2018-06-22T10:07:18.499Z,72.5
2018-06-22T10:08:08.459Z,72.3
2018-06-22T10:08:58.599Z,71.8
2018-06-22T10:09:48.688Z,71.9
2018-06-22T10:10:38.727Z,72.1
2018-06-22T10:11:29.230Z,72.3
2018-06-22T10:12:18.571Z,72.3
2018-06-22T10:13:08.918Z,72.3
2018-06-22T10:13:58.980Z,72.6
2018-06-22T10:14:49.058Z,72.8
2018-06-22T10:15:39.121Z,72.9
2018-06-22T10:16:29.193Z,73.1
2018-06-22T10:17:19.294Z,73.1
2018-06-22T10:18:09.313Z,73.3
2018-06-22T10:18:59.413Z,73.4
2018-06-22T10:19:49.170Z,73.6
2018-06-22T10:20:39.535Z,73.6
2018-06-22T10:21:29.576Z,73.6
2018-06-22T10:22:19.684Z,73.6
2018-06-22T10:23:09.133Z,73.7
2018-06-22T10:23:59.255Z,73.8
2018-06-22T10:24:49.556Z,73.9
2018-06-22T10:25:39.908Z,73.8
2018-06-22T10:26:29.728Z,73.9
2018-06-22T10:27:20.019Z,74
2018-06-22T10:28:10.107Z,74.1
2018-06-22T10:28:59.622Z,74.1
2018-06-22T10:29:50.245Z,74.2
2018-06-22T10:30:40.015Z,74.3
2018-06-22T10:31:30.401Z,74.2
2018-06-22T10:32:20.436Z,73.3
2018-06-22T10:33:09.919Z,71.5
2018-06-22T10:34:00.775Z,69.8
2018-06-22T10:34:50.344Z,68.3
2018-06-22T10:35:40.417Z,67.1
2018-06-22T10:36:30.742Z,66.3
2018-06-22T10:37:20.848Z,65.8
2018-06-22T10:38:10.622Z,66.1
2018-06-22T10:39:00.369Z,67.1
2018-06-22T10:39:50.997Z,67.7
2018-06-22T10:40:41.090Z,68.1
2018-06-22T10:41:31.179Z,69.1
2018-06-22T10:42:21.219Z,69.7
2018-06-22T10:43:11.010Z,70.3
2018-06-22T10:44:01.357Z,70.7
2018-06-22T10:44:51.408Z,71.1
2018-06-22T10:45:41.413Z,70.5
2018-06-22T10:46:31.539Z,68.7
2018-06-22T10:47:21.589Z,66.9
2018-06-22T10:48:11.402Z,65.8
2018-06-22T10:49:01.753Z,65.1
2018-06-22T10:49:51.232Z,65.2
2018-06-22T10:50:41.612Z,65.7
2018-06-22T10:51:32.204Z,65.9
2018-06-22T10:52:21.707Z,65.8
2018-06-22T10:53:11.798Z,65.3
2018-06-22T10:54:01.843Z,64.4
2018-06-22T10:54:51.622Z,63.3
2018-06-22T10:55:41.964Z,62.2
2018-06-22T10:56:32.339Z,61.3
2018-06-22T10:57:22.114Z,60.8
2018-06-22T10:58:11.995Z,60.3
2018-06-22T10:59:02.499Z,59.9
2018-06-22T10:59:52.803Z,59.4
2018-06-22T11:00:42.638Z,58.8
2018-06-22T11:01:32.428Z,58.4
2018-06-22T11:02:22.770Z,58
2018-06-22T11:03:12.567Z,57.8
2018-06-22T11:04:02.900Z,57.6
2018-06-22T11:04:52.687Z,57.2
2018-06-22T11:05:43.257Z,56.8
2018-06-22T11:06:33.083Z,56.6
2018-06-22T11:07:22.873Z,56.4
2018-06-22T11:08:13.219Z,56.1
2018-06-22T11:09:03.302Z,55.7
2018-06-22T11:09:53.372Z,55.3
2018-06-22T11:10:43.413Z,54.9
2018-06-22T11:11:33.488Z,54.6
2018-06-22T11:12:23.548Z,54.1
2018-06-22T11:13:13.058Z,53.7
2018-06-22T11:14:04.400Z,53.3
2018-06-22T11:14:53.763Z,52.9
2018-06-22T11:15:43.863Z,52.3
2018-06-22T11:16:33.934Z,51.7
2018-06-22T11:17:24.245Z,51.1
2018-06-22T11:18:14.154Z,50.6
2018-06-22T11:19:04.129Z,50.1
2018-06-22T11:19:53.862Z,49.6
2018-06-22T11:20:44.225Z,49.1
2018-06-22T11:21:34.021Z,48.3
2018-06-22T11:22:23.782Z,47.5
2018-06-22T11:23:14.131Z,46.8
2018-06-22T11:24:04.460Z,46.1
2018-06-22T11:24:54.637Z,45.4
2018-06-22T11:25:44.649Z,44.9
2018-06-22T11:26:34.392Z,44.3
2018-06-22T11:27:24.436Z,43.7
2018-06-22T11:28:14.815Z,43.1
2018-06-22T11:29:04.887Z,42.6
2018-06-22T11:29:54.942Z,42
2018-06-22T11:30:45.216Z,41.4
2018-06-22T11:31:34.480Z,41
2018-06-22T11:32:25.100Z,40.5
2018-06-22T11:33:14.914Z,39.9
2018-06-22T11:34:05.261Z,39.3
2018-06-22T11:34:55.028Z,38.8
2018-06-22T11:35:45.730Z,38.3
2018-06-22T11:36:35.432Z,37.8
2018-06-22T11:37:25.524Z,37.4
2018-06-22T11:38:15.547Z,36.9
2018-06-22T11:39:05.339Z,36.4
2018-06-22T11:39:55.695Z,36
2018-06-22T11:40:45.741Z,35.5
2018-06-22T11:41:35.829Z,35.1
2018-06-22T11:42:25.591Z,34.6
2018-06-22T11:43:15.937Z,34.2
2018-06-22T11:44:05.751Z,33.8
2018-06-22T11:44:56.079Z,33.3
2018-06-22T11:45:46.132Z,32.8
2018-06-22T11:46:36.210Z,32.3
2018-06-22T11:47:26.049Z,31.9
2018-06-22T11:48:16.325Z,31.4
2018-06-22T11:49:06.388Z,31
2018-06-22T11:49:56.489Z,30.5
2018-06-22T11:50:46.556Z,30.1
2018-06-22T11:51:36.058Z,29.6
2018-06-22T11:52:26.660Z,29.2
2018-06-22T11:53:16.171Z,28.8
2018-06-22T11:54:06.776Z,28.4
2018-06-22T11:54:56.833Z,28.1
2018-06-22T11:55:46.908Z,27.8
2018-06-22T11:56:36.709Z,27.4
2018-06-22T11:57:26.491Z,27.1
2018-06-22T11:58:17.112Z,26.9
2018-06-22T11:59:07.531Z,26.6
2018-06-22T11:59:57.238Z,26.3
2018-06-22T12:00:47.340Z,26.1
2018-06-22T12:01:37.514Z,25.9
2018-06-22T12:02:27.411Z,25.6
2018-06-22T12:03:17.490Z,25.4
2018-06-22T12:04:07.626Z,25.3
2018-06-22T12:04:57.631Z,25
2018-06-22T12:05:47.407Z,24.8
2018-06-22T12:06:37.785Z,24.6
2018-06-22T12:07:27.810Z,24.4
2018-06-22T12:08:17.878Z,24.2
2018-06-22T12:09:07.377Z,24
2018-06-22T12:09:58.028Z,23.9
2018-06-22T12:10:48.085Z,23.7
2018-06-22T12:11:37.887Z,23.6
2018-06-22T12:12:28.205Z,23.4
2018-06-22T12:13:18.007Z,23.3
2018-06-22T12:14:08.362Z,23.2
2018-06-22T12:14:58.403Z,23
2018-06-22T12:15:48.454Z,22.9
2018-06-22T12:16:38.528Z,22.8
2018-06-22T12:17:28.599Z,22.6
2018-06-22T12:18:18.649Z,22.6
2018-06-22T12:19:08.799Z,22.4
2018-06-22T12:19:58.801Z,22.4
2018-06-22T12:20:48.876Z,22.3
2018-06-22T12:21:38.924Z,22.2
2018-06-22T12:22:28.727Z,22.1
2018-06-22T12:23:18.768Z,22.1
2018-06-22T12:24:09.119Z,22
2018-06-22T12:24:59.161Z,21.9
2018-06-22T12:25:48.957Z,21.9
2018-06-22T12:26:39.011Z,21.8
2018-06-22T12:27:29.374Z,21.8
2018-06-22T12:28:19.430Z,21.7
2018-06-22T12:29:08.932Z,21.7
2018-06-22T12:29:59.554Z,21.7
2018-06-22T12:30:49.686Z,21.6
2018-06-22T12:31:39.430Z,21.6
2018-06-22T12:32:29.474Z,21.6
2018-06-22T12:33:19.281Z,21.6
2018-06-22T12:34:09.652Z,21.6
2018-06-22T12:34:59.683Z,21.7
2018-06-22T12:35:49.465Z,21.9
2018-06-22T12:36:40.076Z,22
2018-06-22T12:37:30.133Z,22.3
2018-06-22T12:38:20.229Z,22.6
2018-06-22T12:39:09.988Z,23.1
2018-06-22T12:40:00.327Z,23.7
2018-06-22T12:40:50.417Z,24.3
2018-06-22T12:41:40.463Z,24.9
2018-06-22T12:42:30.531Z,25.6
2018-06-22T12:43:20.669Z,26.2
2018-06-22T12:44:10.649Z,26.8
2018-06-22T12:45:01.025Z,27.3
2018-06-22T12:45:50.520Z,27.9
2018-06-22T12:46:40.868Z,28.4
2018-06-22T12:47:30.914Z,28.9
2018-06-22T12:48:20.426Z,29.4
2018-06-22T12:49:11.036Z,29.9
2018-06-22T12:50:00.828Z,30.4
2018-06-22T12:50:50.922Z,30.9
2018-06-22T12:51:40.687Z,31.4
2018-06-22T12:52:30.730Z,31.9
2018-06-22T12:53:21.137Z,32.4
2018-06-22T12:54:10.883Z,32.8
2018-06-22T12:55:01.558Z,33.3
2018-06-22T12:55:51.030Z,33.8
2018-06-22T12:56:40.879Z,34.4
2018-06-22T12:57:31.867Z,34.9
2018-06-22T12:58:21.764Z,35.8
2018-06-22T12:59:11.854Z,36.4
2018-06-22T13:00:01.630Z,36.9
2018-06-22T13:00:51.980Z,37.3
2018-06-22T13:01:42.056Z,37.7
2018-06-22T13:02:31.849Z,38.1
2018-06-22T13:03:21.583Z,38.3
2018-06-22T13:04:11.655Z,38.5
2018-06-22T13:05:02.313Z,38.8
2018-06-22T13:05:52.067Z,39
2018-06-22T13:06:42.416Z,39.2
2018-06-22T13:07:32.466Z,39.4
2018-06-22T13:08:22.260Z,39.6
2018-06-22T13:09:12.426Z,39.8
2018-06-22T13:10:02.374Z,39.9
2018-06-22T13:10:52.745Z,40.1
2018-06-22T13:11:42.806Z,40.3
2018-06-22T13:12:33.008Z,40.4
2018-06-22T13:13:22.669Z,40.6
2018-06-22T13:14:12.696Z,40.8
2018-06-22T13:15:03.054Z,40.8
2018-06-22T13:15:53.097Z,40.9
2018-06-22T13:16:43.161Z,41.1
2018-06-22T13:17:32.955Z,41.1
2018-06-22T13:18:23.287Z,41.3
2018-06-22T13:19:13.380Z,41.3
2018-06-22T13:20:03.440Z,41.4
2018-06-22T13:20:53.205Z,41.4
2018-06-22T13:21:43.580Z,41.4
2018-06-22T13:22:32.795Z,41.4
2018-06-22T13:23:23.416Z,41.4
2018-06-22T13:24:13.788Z,41.4
2018-06-22T13:25:03.823Z,41.4
2018-06-22T13:25:53.863Z,41.3
2018-06-22T13:26:44.047Z,41.3
2018-06-22T13:27:33.996Z,41.3
2018-06-22T13:28:23.805Z,41.3
2018-06-22T13:29:14.111Z,41.4
2018-06-22T13:30:04.189Z,41.4
2018-06-22T13:30:54.431Z,41.5
2018-06-22T13:31:44.331Z,41.6
2018-06-22T13:32:33.833Z,41.8
2018-06-22T13:33:24.192Z,41.8
2018-06-22T13:34:14.511Z,41.8
2018-06-22T13:35:04.580Z,41.8
2018-06-22T13:35:54.637Z,41.9
2018-06-22T13:36:44.711Z,41.9
2018-06-22T13:37:34.774Z,42
2018-06-22T13:38:24.557Z,42.1
2018-06-22T13:39:14.360Z,42.2
2018-06-22T13:40:04.966Z,42.4
2018-06-22T13:40:55.050Z,42.6
2018-06-22T13:41:44.549Z,42.9
2018-06-22T13:42:35.167Z,43.2
2018-06-22T13:43:25.212Z,43.5
2018-06-22T13:44:15.298Z,43.8
2018-06-22T13:45:05.374Z,44.2
2018-06-22T13:45:55.422Z,44.6
2018-06-22T13:46:44.966Z,45.1
2018-06-22T13:47:35.286Z,45.5
2018-06-22T13:48:25.613Z,45.9
2018-06-22T13:49:15.689Z,46.3
2018-06-22T13:50:05.622Z,46.6
2018-06-22T13:50:55.255Z,46.9
2018-06-22T13:51:45.874Z,47.1
2018-06-22T13:52:35.968Z,47.4
2018-06-22T13:53:26.023Z,47.6
2018-06-22T13:54:15.805Z,47.8
2018-06-22T13:55:05.590Z,47.9
2018-06-22T13:55:55.932Z,48
2018-06-22T13:56:46.618Z,48.1
2018-06-22T13:57:36.588Z,48.1
2018-06-22T13:58:26.404Z,48.1
2018-06-22T13:59:16.183Z,48
2018-06-22T14:00:06.539Z,48
2018-06-22T14:00:56.639Z,48
2018-06-22T14:01:46.664Z,48.1
2018-06-22T14:02:36.446Z,48.1
2018-06-22T14:03:26.779Z,48.1
2018-06-22T14:04:16.900Z,47.9
2018-06-22T14:05:06.618Z,47.9
2018-06-22T14:05:56.729Z,47.7
2018-06-22T14:06:46.480Z,47.6
2018-06-22T14:07:36.551Z,47.6
2018-06-22T14:08:26.878Z,47.6
2018-06-22T14:09:17.430Z,47.4
2018-06-22T14:10:07.297Z,47.4
2018-06-22T14:10:57.095Z,47.3
2018-06-22T14:11:47.170Z,47.1
2018-06-22T14:12:36.995Z,47
2018-06-22T14:13:27.543Z,46.9
2018-06-22T14:14:17.630Z,46.7
2018-06-22T14:15:07.396Z,46.6
2018-06-22T14:15:57.741Z,46.4
2018-06-22T14:16:47.828Z,46.4
2018-06-22T14:17:37.881Z,46.3
2018-06-22T14:18:27.965Z,46.2
2018-06-22T14:19:18.003Z,46.1
2018-06-22T14:20:08.369Z,45.9
2018-06-22T14:20:58.147Z,45.8
2018-06-22T14:21:47.954Z,45.6
2018-06-22T14:22:37.697Z,45.5
2018-06-22T14:23:28.332Z,45.4
2018-06-22T14:24:18.129Z,45.3
2018-06-22T14:25:08.454Z,45.1
2018-06-22T14:25:58.519Z,45
2018-06-22T14:26:48.600Z,44.9
2018-06-22T14:27:38.368Z,44.9
2018-06-22T14:28:28.457Z,44.9
2018-06-22T14:29:18.833Z,44.9
2018-06-22T14:30:08.861Z,44.8
2018-06-22T14:30:59.228Z,44.8
2018-06-22T14:31:48.990Z,44.6
2018-06-22T14:32:39.020Z,44.6
2018-06-22T14:33:28.833Z,44.4
2018-06-22T14:34:18.880Z,44.4
2018-06-22T14:35:08.973Z,44.4
2018-06-22T14:35:59.019Z,44.4
2018-06-22T14:36:49.373Z,44.4
2018-06-22T14:37:38.867Z,44.4
2018-06-22T14:38:28.965Z,44.4
2018-06-22T14:39:19.290Z,44.4
2018-06-22T14:40:09.610Z,44.4
2018-06-22T14:40:59.681Z,44.4
2018-06-22T14:41:49.229Z,44.5
2018-06-22T14:42:39.820Z,44.6
2018-06-22T14:43:30.663Z,44.6
2018-06-22T14:44:19.952Z,44.7
2018-06-22T14:45:10.018Z,44.8
2018-06-22T14:45:59.821Z,44.9
2018-06-22T14:46:49.949Z,45
2018-06-22T14:47:39.935Z,45
2018-06-22T14:48:29.765Z,45.1
2018-06-22T14:49:20.053Z,45.3
2018-06-22T14:50:10.358Z,45.4
2018-06-22T14:50:59.939Z,45.6
2018-06-22T14:51:50.547Z,45.7
2018-06-22T14:52:40.584Z,45.8